Filskov, Denmark
Current Conditions -  °F | °C
As of 7:20 AM on Monday 26 Jan 2015 (Local Time) from EKBI Reporting Station
Rain Showers Rain Showers  
Wind Chill: 31°   Ceiling: 300
Heat Index: 37°   Visibility: 1.5mi
Dew Point: 37°   Wind: 9mph
Humidity: 100%   Direction: 180°S
Pressure: 29.94"   Gusts: NA
Location:  55.81°N, 9.02°E
Report Text: EKBI 260620Z AUTO 18008KT 2500NDV -SHRA BR OVC003/// 03/03 Q1014
Loading
Personal Weather Stations






























Interactive Weather Map New forecast layout! Learn more

10-Day Weather Forecast

Advertisements
Track Severe Weather on mobile